Time;durP1;ratioP1;P1;durP2;ratioP2;P2;SDS_P1;SDS_P2;PMS_P1;PMS_P2;Temp;Humidity;BMP_temperature;BMP_pressure;BME280_temperature;BME280_humidity;BME280_pressure;Samples;Min_cycle;Max_cycle;Signal;HPM_P1;HPM_P2
2022/12/02 00:00:49;;;;;;;;;;;2.20;99.90;;;;;;5031906;28;19946;-65
2022/12/02 00:03:17;;;;;;;;;;;2.20;99.90;;;;;;5032317;28;20143;-67
2022/12/02 00:05:45;;;;;;;;;;;2.20;99.90;;;;;;5031072;28;20325;-66
2022/12/02 00:08:18;;;;;;;;;;;2.20;99.90;;;;;;5032469;28;20043;-66
2022/12/02 00:10:48;;;;;;;;;;;2.20;99.90;;;;;;5026784;28;20031;-63
2022/12/02 00:13:15;;;;;;;;;;;2.20;99.90;;;;;;5029613;28;19924;-65
2022/12/02 00:15:43;;;;;;;;;;;2.20;99.90;;;;;;5031639;28;19925;-65
2022/12/02 00:18:11;;;;;;;;;;;2.20;99.90;;;;;;5033413;28;19925;-65
2022/12/02 00:20:38;;;;;;;;;;;2.20;99.90;;;;;;5030929;28;20393;-67
2022/12/02 00:23:05;;;;;;;;;;;2.20;99.90;;;;;;5033984;28;19924;-66
2022/12/02 00:25:32;;;;;;;;;;;2.10;99.90;;;;;;5031772;28;19951;-65
2022/12/02 00:27:59;;;;;;;;;;;2.10;99.90;;;;;;5033576;28;19924;-66
2022/12/02 00:30:26;;;;;;;;;;;2.10;99.90;;;;;;5032769;28;19968;-66
2022/12/02 00:32:52;;;;;;;;;;;2.10;99.90;;;;;;5033855;28;19930;-67
2022/12/02 00:35:22;;;;;;;;;;;2.10;99.90;;;;;;5031725;28;20497;-64
2022/12/02 00:37:48;;;;;;;;;;;2.10;99.90;;;;;;5034116;28;19925;-66
2022/12/02 00:40:16;;;;;;;;;;;2.10;99.90;;;;;;5032096;28;20608;-65
2022/12/02 00:42:42;;;;;;;;;;;2.10;99.90;;;;;;5035927;28;19924;-67
2022/12/02 00:47:58;;;;;;;;;;;2.10;99.90;;;;;;5033028;28;20454;-66
2022/12/02 00:50:24;;;;;;;;;;;2.10;99.90;;;;;;5030939;28;19925;-66
2022/12/02 00:52:51;;;;;;;;;;;2.10;99.90;;;;;;5035101;28;19947;-64
2022/12/02 00:55:18;;;;;;;;;;;2.10;99.90;;;;;;5031021;28;19994;-65
2022/12/02 00:57:45;;;;;;;;;;;2.10;99.90;;;;;;5041220;28;19924;-67
2022/12/02 01:00:12;;;;;;;;;;;2.10;99.90;;;;;;5034468;28;19998;-67
2022/12/02 01:02:39;;;;;;;;;;;2.10;99.90;;;;;;5038915;28;20413;-66
2022/12/02 01:05:06;;;;;;;;;;;2.10;99.90;;;;;;5036293;28;19925;-66
2022/12/02 01:07:33;;;;;;;;;;;2.10;99.90;;;;;;5042560;28;19924;-65
2022/12/02 01:10:00;;;;;;;;;;;2.10;99.90;;;;;;5036826;28;19924;-66
2022/12/02 01:12:26;;;;;;;;;;;2.10;99.90;;;;;;5032521;28;19935;-68
2022/12/02 01:14:53;;;;;;;;;;;2.10;99.90;;;;;;5043878;28;19931;-63
2022/12/02 01:17:19;;;;;;;;;;;2.10;99.90;;;;;;5036712;28;19957;-67
2022/12/02 01:19:46;;;;;;;;;;;2.10;99.90;;;;;;5041190;28;20472;-68
2022/12/02 01:22:12;;;;;;;;;;;2.10;99.90;;;;;;5036927;28;19924;-65
2022/12/02 01:24:39;;;;;;;;;;;2.10;99.90;;;;;;5036487;28;19924;-68
2022/12/02 01:27:06;;;;;;;;;;;2.20;99.90;;;;;;5036874;28;19924;-68
2022/12/02 01:29:33;;;;;;;;;;;2.10;99.90;;;;;;5037870;28;19924;-65
2022/12/02 01:32:00;;;;;;;;;;;2.10;99.90;;;;;;5034093;28;20041;-67
2022/12/02 01:34:27;;;;;;;;;;;2.20;99.90;;;;;;5033368;28;19929;-68
2022/12/02 01:36:53;;;;;;;;;;;2.20;99.90;;;;;;5035504;28;20013;-67
2022/12/02 01:39:20;;;;;;;;;;;2.10;99.90;;;;;;5034376;28;20528;-68
2022/12/02 01:41:47;;;;;;;;;;;2.10;99.90;;;;;;5034254;28;20023;-66
2022/12/02 01:44:13;;;;;;;;;;;2.10;99.90;;;;;;5063960;28;19964;-66
2022/12/02 01:46:41;;;;;;;;;;;2.10;99.90;;;;;;5042553;28;20026;-65
2022/12/02 01:49:07;;;;;;;;;;;2.10;99.90;;;;;;5035967;28;19924;-69
2022/12/02 01:51:34;;;;;;;;;;;2.10;99.90;;;;;;5036267;28;20306;-67
2022/12/02 01:54:01;;;;;;;;;;;2.10;99.90;;;;;;5030863;28;19925;-66
2022/12/02 01:56:27;;;;;;;;;;;2.10;99.90;;;;;;5032476;28;20001;-68
2022/12/02 01:58:54;;;;;;;;;;;2.10;99.90;;;;;;5038899;28;19929;-66
2022/12/02 02:01:28;;;;;;;;;;;2.10;99.90;;;;;;5066288;28;20463;-67
2022/12/02 02:03:55;;;;;;;;;;;2.10;99.90;;;;;;5039385;28;20331;-67
2022/12/02 02:06:23;;;;;;;;;;;2.10;99.90;;;;;;5037539;28;19950;-65
2022/12/02 02:08:50;;;;;;;;;;;2.10;99.90;;;;;;5033461;28;20230;-67
2022/12/02 02:11:17;;;;;;;;;;;2.20;99.90;;;;;;5042191;28;19925;-65
2022/12/02 02:13:44;;;;;;;;;;;2.10;99.90;;;;;;5039913;28;20266;-67
2022/12/02 02:16:13;;;;;;;;;;;2.10;99.90;;;;;;5033885;28;20462;-67
2022/12/02 02:18:41;;;;;;;;;;;2.10;99.90;;;;;;5050322;28;19955;-65
2022/12/02 02:21:11;;;;;;;;;;;2.10;99.90;;;;;;5035408;28;19956;-68
2022/12/02 02:23:37;;;;;;;;;;;2.10;99.90;;;;;;5042758;28;19982;-67
2022/12/02 02:26:04;;;;;;;;;;;2.10;99.90;;;;;;5035479;28;19925;-66
2022/12/02 02:28:33;;;;;;;;;;;2.10;99.90;;;;;;5035399;28;19925;-65
2022/12/02 02:31:01;;;;;;;;;;;2.10;99.90;;;;;;5035427;28;19982;-67
2022/12/02 02:33:35;;;;;;;;;;;2.10;99.90;;;;;;5040183;28;19929;-67
2022/12/02 02:36:02;;;;;;;;;;;2.10;99.90;;;;;;5034438;28;19924;-67
2022/12/02 02:38:29;;;;;;;;;;;2.00;99.90;;;;;;5032725;28;19931;-66
2022/12/02 02:40:56;;;;;;;;;;;2.10;99.90;;;;;;5058197;28;20436;-67
2022/12/02 02:43:24;;;;;;;;;;;2.10;99.90;;;;;;5041801;28;19932;-65
2022/12/02 02:45:53;;;;;;;;;;;2.10;99.90;;;;;;5041454;28;19925;-64
2022/12/02 02:48:23;;;;;;;;;;;2.00;99.90;;;;;;5042634;28;19935;-67
2022/12/02 02:50:50;;;;;;;;;;;2.10;99.90;;;;;;5047218;28;19959;-65
2022/12/02 02:53:20;;;;;;;;;;;2.10;99.90;;;;;;5035766;28;19924;-65
2022/12/02 02:55:47;;;;;;;;;;;2.00;99.90;;;;;;5062348;28;19929;-67
2022/12/02 02:58:14;;;;;;;;;;;2.10;99.90;;;;;;5034256;28;20384;-66
2022/12/02 03:00:49;;;;;;;;;;;2.00;99.90;;;;;;5033657;28;20198;-67
2022/12/02 03:03:18;;;;;;;;;;;2.00;99.90;;;;;;5033944;28;19924;-66
2022/12/02 03:05:45;;;;;;;;;;;2.00;99.90;;;;;;5024088;28;19925;-67
2022/12/02 03:08:12;;;;;;;;;;;2.00;99.90;;;;;;5032788;28;19924;-67
2022/12/02 03:10:39;;;;;;;;;;;2.00;99.90;;;;;;5049381;28;20353;-67
2022/12/02 03:13:06;;;;;;;;;;;2.00;99.90;;;;;;5065114;28;20238;-67
2022/12/02 03:15:33;;;;;;;;;;;2.00;99.90;;;;;;5033511;28;19964;-66
2022/12/02 03:17:59;;;;;;;;;;;2.00;99.90;;;;;;5039595;28;20249;-66
2022/12/02 03:20:26;;;;;;;;;;;2.00;99.90;;;;;;5032282;28;19925;-66
2022/12/02 03:22:53;;;;;;;;;;;2.00;99.90;;;;;;5036118;28;19924;-67
2022/12/02 03:25:19;;;;;;;;;;;2.00;99.90;;;;;;5032298;28;20591;-67
2022/12/02 03:27:46;;;;;;;;;;;2.00;99.90;;;;;;5033972;28;19952;-66
2022/12/02 03:30:13;;;;;;;;;;;2.00;99.90;;;;;;5033254;28;19932;-65
2022/12/02 03:32:44;;;;;;;;;;;1.90;99.90;;;;;;5032028;28;19924;-68
2022/12/02 03:35:11;;;;;;;;;;;1.90;99.90;;;;;;5031121;28;19925;-67
2022/12/02 03:37:38;;;;;;;;;;;1.90;99.90;;;;;;5034608;28;20631;-66
2022/12/02 03:40:05;;;;;;;;;;;1.90;99.90;;;;;;5033591;28;20107;-67
2022/12/02 03:42:32;;;;;;;;;;;1.90;99.90;;;;;;5035901;28;19925;-66
2022/12/02 03:44:58;;;;;;;;;;;1.90;99.90;;;;;;5032627;28;19925;-67
2022/12/02 03:47:25;;;;;;;;;;;1.90;99.90;;;;;;5034096;28;20039;-67
2022/12/02 03:49:52;;;;;;;;;;;1.90;99.90;;;;;;5034505;28;20337;-67
2022/12/02 03:52:19;;;;;;;;;;;1.90;99.90;;;;;;5035774;28;19924;-66
2022/12/02 03:54:45;;;;;;;;;;;1.90;99.90;;;;;;5063380;28;20433;-67
2022/12/02 03:57:20;;;;;;;;;;;2.00;99.90;;;;;;5030104;28;19924;-66
2022/12/02 03:59:46;;;;;;;;;;;2.00;99.90;;;;;;5031868;28;19924;-67
2022/12/02 04:02:13;;;;;;;;;;;2.00;99.90;;;;;;5032922;28;19928;-65
2022/12/02 04:04:40;;;;;;;;;;;2.00;99.90;;;;;;5033166;28;19933;-66
2022/12/02 04:07:06;;;;;;;;;;;2.00;99.90;;;;;;5031495;28;19925;-67
2022/12/02 04:09:33;;;;;;;;;;;2.00;99.90;;;;;;5031747;28;19924;-66
2022/12/02 04:12:00;;;;;;;;;;;2.00;99.90;;;;;;5030605;28;19924;-67
2022/12/02 04:14:26;;;;;;;;;;;2.00;99.90;;;;;;5029496;28;19972;-67
2022/12/02 04:16:53;;;;;;;;;;;2.00;99.90;;;;;;5034636;28;19929;-65
2022/12/02 04:19:20;;;;;;;;;;;2.00;99.90;;;;;;5033160;28;19931;-67
2022/12/02 04:21:47;;;;;;;;;;;1.90;99.90;;;;;;5034303;28;19925;-67
2022/12/02 04:24:14;;;;;;;;;;;1.90;99.90;;;;;;5031854;28;20385;-65
2022/12/02 04:26:40;;;;;;;;;;;1.90;99.90;;;;;;5031991;28;20626;-67
2022/12/02 04:29:10;;;;;;;;;;;1.90;99.90;;;;;;5029363;28;19924;-67
2022/12/02 04:31:36;;;;;;;;;;;1.90;99.90;;;;;;5034455;28;20373;-67
2022/12/02 04:34:03;;;;;;;;;;;1.90;99.90;;;;;;5032996;28;19927;-66
2022/12/02 04:36:30;;;;;;;;;;;1.90;99.90;;;;;;5036566;28;20248;-66
2022/12/02 04:38:57;;;;;;;;;;;1.90;99.90;;;;;;5032899;28;20007;-66
2022/12/02 04:41:23;;;;;;;;;;;1.90;99.90;;;;;;5035597;28;19931;-67
2022/12/02 04:43:50;;;;;;;;;;;1.90;99.90;;;;;;5034201;28;20020;-66
2022/12/02 04:46:16;;;;;;;;;;;1.90;99.90;;;;;;5044788;28;20014;-64
2022/12/02 04:48:43;;;;;;;;;;;1.90;99.90;;;;;;5037439;28;19971;-66
2022/12/02 04:51:10;;;;;;;;;;;1.90;99.90;;;;;;5036747;28;19924;-64
2022/12/02 04:53:36;;;;;;;;;;;1.90;99.90;;;;;;5037363;28;20315;-65
2022/12/02 04:56:03;;;;;;;;;;;1.90;99.90;;;;;;5038432;28;19932;-65
2022/12/02 04:58:30;;;;;;;;;;;1.90;99.90;;;;;;5033775;28;20405;-65
2022/12/02 05:00:56;;;;;;;;;;;1.90;99.90;;;;;;5037210;28;19970;-63
2022/12/02 05:03:23;;;;;;;;;;;1.90;99.90;;;;;;5031589;28;20038;-65
2022/12/02 05:05:50;;;;;;;;;;;1.90;99.90;;;;;;5036039;28;20333;-68
2022/12/02 05:08:16;;;;;;;;;;;1.90;99.90;;;;;;5036082;28;20016;-65
2022/12/02 05:10:43;;;;;;;;;;;1.90;99.90;;;;;;5044410;28;19924;-66
2022/12/02 05:13:09;;;;;;;;;;;1.90;99.90;;;;;;5032883;28;20748;-64
2022/12/02 05:15:36;;;;;;;;;;;1.90;99.90;;;;;;5032766;28;19928;-66
2022/12/02 05:18:03;;;;;;;;;;;1.90;99.90;;;;;;5035628;28;20385;-66
2022/12/02 05:20:29;;;;;;;;;;;1.90;99.90;;;;;;5036121;28;20714;-65
2022/12/02 05:22:56;;;;;;;;;;;1.90;99.90;;;;;;5034850;28;19931;-66
2022/12/02 05:25:23;;;;;;;;;;;1.90;99.90;;;;;;5034622;28;20004;-65
2022/12/02 05:27:49;;;;;;;;;;;1.90;99.90;;;;;;5035686;28;20030;-67
2022/12/02 05:30:16;;;;;;;;;;;1.90;99.90;;;;;;5034646;28;20424;-65
2022/12/02 05:32:43;;;;;;;;;;;1.90;99.90;;;;;;5036194;28;20418;-66
2022/12/02 05:35:09;;;;;;;;;;;1.90;99.90;;;;;;5068132;28;19931;-65
2022/12/02 05:37:36;;;;;;;;;;;1.90;99.90;;;;;;5033443;28;20007;-65
2022/12/02 05:40:03;;;;;;;;;;;1.90;99.90;;;;;;5039934;28;19924;-66
2022/12/02 05:42:30;;;;;;;;;;;1.90;99.90;;;;;;5036463;28;20033;-65
2022/12/02 05:44:59;;;;;;;;;;;1.90;99.90;;;;;;5042478;28;19967;-65
2022/12/02 05:47:27;;;;;;;;;;;1.90;99.90;;;;;;5031705;28;20189;-66
2022/12/02 05:49:54;;;;;;;;;;;1.90;99.90;;;;;;5033312;28;19936;-63
2022/12/02 05:52:22;;;;;;;;;;;1.90;99.90;;;;;;5033106;28;19994;-65
2022/12/02 05:54:54;;;;;;;;;;;1.90;99.90;;;;;;5032977;28;19936;-65
2022/12/02 05:57:25;;;;;;;;;;;1.90;99.90;;;;;;5034916;28;19932;-66
2022/12/02 06:00:12;;;;;;;;;;;1.90;99.90;;;;;;5034257;28;19925;-66
2022/12/02 06:02:40;;;;;;;;;;;1.90;99.90;;;;;;5034812;28;19936;-65
2022/12/02 06:05:26;;;;;;;;;;;1.90;99.90;;;;;;5034110;28;20519;-64
2022/12/02 06:08:07;;;;;;;;;;;1.90;99.90;;;;;;5034106;28;19925;-64
2022/12/02 06:10:35;;;;;;;;;;;1.90;99.90;;;;;;5036803;28;19994;-66
2022/12/02 06:13:06;;;;;;;;;;;1.80;99.90;;;;;;5033824;28;19924;-66
2022/12/02 06:15:35;;;;;;;;;;;1.80;99.90;;;;;;5034230;28;19931;-67
2022/12/02 06:18:02;;;;;;;;;;;1.80;99.90;;;;;;5032551;28;19924;-67
2022/12/02 06:20:32;;;;;;;;;;;1.80;99.90;;;;;;5034897;28;19978;-66
2022/12/02 06:23:00;;;;;;;;;;;1.90;99.90;;;;;;5033315;28;20445;-67
2022/12/02 06:25:28;;;;;;;;;;;1.90;99.90;;;;;;5035858;28;19931;-66
2022/12/02 06:27:56;;;;;;;;;;;1.80;99.90;;;;;;5036378;28;19982;-66
2022/12/02 06:30:25;;;;;;;;;;;1.90;99.90;;;;;;5036006;28;19930;-65
2022/12/02 06:32:54;;;;;;;;;;;1.80;99.90;;;;;;5037092;28;20039;-65
2022/12/02 06:35:31;;;;;;;;;;;1.80;99.90;;;;;;5035661;28;20275;-66
2022/12/02 06:38:01;;;;;;;;;;;1.90;99.90;;;;;;5034923;28;19929;-65
2022/12/02 06:40:29;;;;;;;;;;;1.90;99.90;;;;;;5035724;28;20028;-64
2022/12/02 06:43:13;;;;;;;;;;;1.90;99.90;;;;;;5032973;28;19964;-65
2022/12/02 06:45:41;;;;;;;;;;;1.90;99.90;;;;;;5034071;28;20028;-65
2022/12/02 06:48:27;;;;;;;;;;;1.90;99.90;;;;;;5034615;28;20164;-66
2022/12/02 06:50:55;;;;;;;;;;;1.90;99.90;;;;;;5033643;28;20103;-66
2022/12/02 06:53:27;;;;;;;;;;;1.90;99.90;;;;;;5033205;28;20019;-65
2022/12/02 06:56:13;;;;;;;;;;;1.90;99.90;;;;;;5035398;28;20520;-63
2022/12/02 06:58:44;;;;;;;;;;;1.90;99.90;;;;;;5034289;28;20335;-64
2022/12/02 07:01:10;;;;;;;;;;;1.90;99.90;;;;;;5032285;28;19928;-66
2022/12/02 07:03:42;;;;;;;;;;;1.90;99.90;;;;;;5033788;28;19924;-66
2022/12/02 07:06:19;;;;;;;;;;;1.90;99.90;;;;;;5035384;28;19924;-66
2022/12/02 07:08:46;;;;;;;;;;;1.90;99.90;;;;;;5036674;28;19932;-64
2022/12/02 07:11:48;;;;;;;;;;;1.90;99.90;;;;;;5034974;28;19965;-52
2022/12/02 07:14:13;;;;;;;;;;;1.90;99.90;;;;;;5030350;28;19960;-53
2022/12/02 07:16:41;;;;;;;;;;;1.90;99.90;;;;;;5028971;28;19924;-54
2022/12/02 07:19:12;;;;;;;;;;;1.90;99.90;;;;;;5029166;28;20240;-55
2022/12/02 07:21:39;;;;;;;;;;;1.90;99.90;;;;;;5030952;28;19929;-55
2022/12/02 07:24:07;;;;;;;;;;;1.90;99.90;;;;;;5033351;28;20339;-53
2022/12/02 07:26:34;;;;;;;;;;;1.90;99.90;;;;;;5032592;28;20373;-53
2022/12/02 07:29:01;;;;;;;;;;;2.00;99.90;;;;;;5034883;28;20138;-54
2022/12/02 07:31:43;;;;;;;;;;;2.00;99.90;;;;;;5034791;28;20011;-54
2022/12/02 07:34:12;;;;;;;;;;;2.00;99.90;;;;;;5029559;28;20026;-53
2022/12/02 07:36:38;;;;;;;;;;;2.00;99.90;;;;;;5030916;28;19935;-55
2022/12/02 07:39:06;;;;;;;;;;;2.00;99.90;;;;;;5031201;28;20015;-54
2022/12/02 07:41:36;;;;;;;;;;;2.00;99.90;;;;;;5034059;28;20210;-53
2022/12/02 07:44:04;;;;;;;;;;;2.00;99.90;;;;;;5031754;28;20325;-53
2022/12/02 07:46:30;;;;;;;;;;;2.10;99.90;;;;;;5032217;28;20407;-52
2022/12/02 07:48:57;;;;;;;;;;;2.00;99.90;;;;;;5032518;28;19978;-53
2022/12/02 07:51:24;;;;;;;;;;;2.00;99.90;;;;;;5028719;28;20261;-53
2022/12/02 07:53:51;;;;;;;;;;;2.00;99.90;;;;;;5033398;28;20972;-54
2022/12/02 07:56:17;;;;;;;;;;;2.00;99.90;;;;;;5031414;28;19931;-53
2022/12/02 07:58:44;;;;;;;;;;;2.00;99.90;;;;;;5030476;28;19925;-53
2022/12/02 08:01:31;;;;;;;;;;;2.00;99.90;;;;;;5032087;28;19924;-53
2022/12/02 08:03:58;;;;;;;;;;;2.10;99.90;;;;;;5037191;28;20297;-53
2022/12/02 08:06:24;;;;;;;;;;;2.10;99.90;;;;;;5038124;28;20035;-54
2022/12/02 08:08:51;;;;;;;;;;;2.10;99.90;;;;;;5030929;28;19925;-55
2022/12/02 08:11:17;;;;;;;;;;;2.10;99.90;;;;;;5029196;28;20014;-53
2022/12/02 08:13:44;;;;;;;;;;;2.10;99.90;;;;;;5031583;28;19932;-53
2022/12/02 08:16:11;;;;;;;;;;;2.10;99.90;;;;;;5030899;28;19954;-54
2022/12/02 08:18:37;;;;;;;;;;;2.10;99.90;;;;;;5030827;28;20716;-53
2022/12/02 08:21:05;;;;;;;;;;;2.10;99.90;;;;;;5031651;28;19925;-54
2022/12/02 08:23:35;;;;;;;;;;;2.10;99.90;;;;;;5032063;28;20108;-51
2022/12/02 08:26:02;;;;;;;;;;;2.10;99.90;;;;;;5033364;28;20015;-54
2022/12/02 08:28:28;;;;;;;;;;;2.20;99.90;;;;;;5032230;28;19928;-52
2022/12/02 08:30:55;;;;;;;;;;;2.10;99.90;;;;;;5028831;28;20224;-49
2022/12/02 08:33:21;;;;;;;;;;;2.10;99.90;;;;;;5032221;28;20554;-53
2022/12/02 08:35:48;;;;;;;;;;;2.20;99.90;;;;;;5029152;28;20031;-54
2022/12/02 08:38:15;;;;;;;;;;;2.20;99.90;;;;;;5030381;28;19931;-54
2022/12/02 08:40:42;;;;;;;;;;;2.20;99.90;;;;;;5033360;28;20019;-53
2022/12/02 08:43:09;;;;;;;;;;;2.20;99.90;;;;;;5029432;28;20204;-55
2022/12/02 08:45:35;;;;;;;;;;;2.20;99.90;;;;;;5032630;28;20178;-55
2022/12/02 08:48:02;;;;;;;;;;;2.30;99.90;;;;;;5033312;28;19931;-54
2022/12/02 08:50:29;;;;;;;;;;;2.20;99.90;;;;;;5033590;28;20412;-55
2022/12/02 08:52:55;;;;;;;;;;;2.30;99.90;;;;;;5026872;28;20421;-53
2022/12/02 08:55:24;;;;;;;;;;;2.30;99.90;;;;;;5033313;28;20529;-55
2022/12/02 08:57:51;;;;;;;;;;;2.30;99.90;;;;;;5031485;28;20334;-55
2022/12/02 09:00:18;;;;;;;;;;;2.30;99.90;;;;;;5029850;28;19924;-53
2022/12/02 09:02:45;;;;;;;;;;;2.30;99.90;;;;;;5029811;28;20135;-54
2022/12/02 09:05:12;;;;;;;;;;;2.30;99.90;;;;;;5028624;28;19925;-54
2022/12/02 09:07:39;;;;;;;;;;;2.30;99.90;;;;;;5028801;28;20051;-55
2022/12/02 09:10:06;;;;;;;;;;;2.30;99.90;;;;;;5033108;28;19931;-53
2022/12/02 09:12:33;;;;;;;;;;;2.40;99.90;;;;;;5028447;28;19931;-53
2022/12/02 09:14:59;;;;;;;;;;;2.30;99.90;;;;;;5031112;28;20160;-54
2022/12/02 09:17:26;;;;;;;;;;;2.40;99.90;;;;;;5029652;28;20381;-56
2022/12/02 09:19:53;;;;;;;;;;;2.40;99.90;;;;;;5030288;28;19931;-53
2022/12/02 09:22:19;;;;;;;;;;;2.40;99.90;;;;;;5033762;28;19947;-55
2022/12/02 09:24:46;;;;;;;;;;;2.40;99.90;;;;;;5032940;28;19931;-56
2022/12/02 09:27:13;;;;;;;;;;;2.40;99.90;;;;;;5036158;28;20293;-56
2022/12/02 09:29:39;;;;;;;;;;;2.40;99.90;;;;;;5035286;28;20240;-55
2022/12/02 09:32:06;;;;;;;;;;;2.50;99.90;;;;;;5036598;28;19963;-54
2022/12/02 09:34:33;;;;;;;;;;;2.50;99.90;;;;;;5034424;28;19924;-56
2022/12/02 09:36:59;;;;;;;;;;;2.50;99.90;;;;;;5032495;28;19924;-56
2022/12/02 09:39:26;;;;;;;;;;;2.50;99.90;;;;;;5036156;28;20393;-55
2022/12/02 09:41:53;;;;;;;;;;;2.50;99.90;;;;;;5035145;28;20419;-56
2022/12/02 09:44:19;;;;;;;;;;;2.60;99.90;;;;;;5035034;28;19925;-54
2022/12/02 09:46:46;;;;;;;;;;;2.60;99.90;;;;;;5033848;28;19931;-54
2022/12/02 09:49:13;;;;;;;;;;;2.60;99.90;;;;;;5033438;28;19986;-56
2022/12/02 09:51:40;;;;;;;;;;;2.60;99.90;;;;;;5034658;28;20102;-52
2022/12/02 09:54:07;;;;;;;;;;;2.60;99.90;;;;;;5030659;28;19929;-51
2022/12/02 09:56:34;;;;;;;;;;;2.60;99.90;;;;;;5032572;28;20743;-52
2022/12/02 09:59:05;;;;;;;;;;;2.60;99.90;;;;;;5034698;28;19978;-53
2022/12/02 10:01:32;;;;;;;;;;;2.60;99.90;;;;;;5034367;28;20010;-52
2022/12/02 10:03:58;;;;;;;;;;;2.70;99.90;;;;;;5039906;28;19932;-54
2022/12/02 10:06:27;;;;;;;;;;;2.70;99.90;;;;;;5030007;28;19931;-54
2022/12/02 10:08:56;;;;;;;;;;;2.70;99.90;;;;;;5035273;28;19932;-52
2022/12/02 10:11:26;;;;;;;;;;;2.70;99.90;;;;;;5035718;28;19924;-54
2022/12/02 10:13:53;;;;;;;;;;;2.80;99.90;;;;;;5029612;28;20704;-54
2022/12/02 10:16:19;;;;;;;;;;;2.80;99.90;;;;;;5036987;28;20574;-55
2022/12/02 10:18:46;;;;;;;;;;;2.80;99.90;;;;;;5030737;28;20166;-55
2022/12/02 10:21:13;;;;;;;;;;;2.90;99.90;;;;;;5032629;28;20390;-53
2022/12/02 10:23:54;;;;;;;;;;;2.90;99.90;;;;;;5036362;28;19924;-54
2022/12/02 10:26:21;;;;;;;;;;;2.90;99.90;;;;;;5033537;28;19924;-56
2022/12/02 10:28:59;;;;;;;;;;;3.00;99.90;;;;;;5035238;28;19924;-55
2022/12/02 10:31:25;;;;;;;;;;;3.00;99.90;;;;;;5034187;28;19956;-53
2022/12/02 10:33:52;;;;;;;;;;;3.10;99.90;;;;;;5033138;28;19925;-55
2022/12/02 10:36:31;;;;;;;;;;;3.10;99.90;;;;;;5041632;28;20330;-52
2022/12/02 10:39:16;;;;;;;;;;;3.10;99.90;;;;;;5035101;28;20030;-55
2022/12/02 10:41:43;;;;;;;;;;;3.20;99.90;;;;;;5035117;28;19925;-53
2022/12/02 10:44:14;;;;;;;;;;;3.20;99.90;;;;;;5040471;28;19975;-53
2022/12/02 10:46:41;;;;;;;;;;;3.20;99.90;;;;;;5030584;28;20402;-57
2022/12/02 10:49:26;;;;;;;;;;;3.30;99.90;;;;;;5032299;28;20282;-54
2022/12/02 10:51:58;;;;;;;;;;;3.30;99.90;;;;;;5035484;28;19990;-50
2022/12/02 10:54:27;;;;;;;;;;;3.40;99.90;;;;;;5038031;28;20276;-58
2022/12/02 10:57:01;;;;;;;;;;;3.40;99.90;;;;;;5031359;28;19932;-52
2022/12/02 10:59:29;;;;;;;;;;;3.40;99.90;;;;;;5033505;28;20181;-55
2022/12/02 11:01:56;;;;;;;;;;;3.40;99.90;;;;;;5032004;28;20030;-54
2022/12/02 11:04:23;;;;;;;;;;;3.40;99.90;;;;;;5034064;28;20302;-53
2022/12/02 11:06:50;;;;;;;;;;;3.40;99.90;;;;;;5045742;28;19928;-54
2022/12/02 11:09:20;;;;;;;;;;;3.40;99.90;;;;;;5034186;28;20022;-54
2022/12/02 11:12:26;;;;;;;;;;;3.40;99.90;;;;;;5031959;28;19932;-52
2022/12/02 11:14:53;;;;;;;;;;;3.40;99.90;;;;;;5030548;28;20349;-53
2022/12/02 11:17:40;;;;;;;;;;;3.50;99.90;;;;;;5032774;28;20035;-54
2022/12/02 11:20:25;;;;;;;;;;;3.50;99.90;;;;;;5031851;28;19924;-54
2022/12/02 11:22:58;;;;;;;;;;;3.50;99.90;;;;;;5031412;28;20365;-50
2022/12/02 11:25:43;;;;;;;;;;;3.50;99.90;;;;;;5034080;28;20665;-54
2022/12/02 11:28:16;;;;;;;;;;;3.50;99.90;;;;;;5031669;28;19924;-52
2022/12/02 11:30:46;;;;;;;;;;;3.50;99.90;;;;;;5034896;28;20310;-52
2022/12/02 11:33:34;;;;;;;;;;;3.50;99.90;;;;;;5038966;28;20746;-54
2022/12/02 11:36:39;;;;;;;;;;;3.50;99.90;;;;;;5033241;28;19971;-56
2022/12/02 11:39:06;;;;;;;;;;;3.60;99.90;;;;;;5001244;28;20558;-55
2022/12/02 11:41:48;;;;;;;;;;;3.60;99.90;;;;;;5001066;28;20381;-53
2022/12/02 11:44:22;;;;;;;;;;;3.60;99.90;;;;;;5016754;28;19928;-54
2022/12/02 11:46:50;;;;;;;;;;;3.60;99.90;;;;;;5031946;28;19982;-52
2022/12/02 11:49:19;;;;;;;;;;;3.60;99.90;;;;;;5033259;28;19960;-52
2022/12/02 11:51:46;;;;;;;;;;;3.70;99.90;;;;;;5032555;28;19925;-53
2022/12/02 11:54:14;;;;;;;;;;;3.70;99.90;;;;;;5030817;28;20282;-52
2022/12/02 11:56:42;;;;;;;;;;;3.70;99.90;;;;;;5033653;28;20526;-54
2022/12/02 11:59:23;;;;;;;;;;;3.70;99.90;;;;;;5031072;28;19925;-55
2022/12/02 12:02:05;;;;;;;;;;;3.80;99.90;;;;;;5030716;28;20394;-56
2022/12/02 12:04:31;;;;;;;;;;;3.80;99.90;;;;;;5035214;28;19924;-54
2022/12/02 12:06:59;;;;;;;;;;;3.80;99.90;;;;;;5030342;28;20323;-55
2022/12/02 12:09:26;;;;;;;;;;;3.80;99.90;;;;;;5032073;28;20032;-53
2022/12/02 12:12:11;;;;;;;;;;;3.80;99.90;;;;;;5032399;28;19931;-55
2022/12/02 12:14:56;;;;;;;;;;;3.90;99.90;;;;;;5032341;28;19933;-54
2022/12/02 12:17:38;;;;;;;;;;;3.90;99.90;;;;;;5030820;28;20023;-58
2022/12/02 12:20:25;;;;;;;;;;;3.90;99.90;;;;;;5033680;28;19928;-55
2022/12/02 12:22:52;;;;;;;;;;;3.90;99.90;;;;;;5025850;28;19936;-53
2022/12/02 12:25:52;;;;;;;;;;;3.90;99.90;;;;;;5036084;28;20390;-57
2022/12/02 12:28:25;;;;;;;;;;;4.00;99.90;;;;;;5015927;28;19951;-55
2022/12/02 12:30:52;;;;;;;;;;;3.90;99.90;;;;;;5034469;28;20480;-55
2022/12/02 12:33:19;;;;;;;;;;;4.00;99.90;;;;;;5030633;28;20224;-55
2022/12/02 12:35:46;;;;;;;;;;;4.00;99.90;;;;;;5028781;28;20458;-56
2022/12/02 12:38:13;;;;;;;;;;;3.90;99.90;;;;;;5032873;28;19924;-54
2022/12/02 12:40:40;;;;;;;;;;;3.90;99.90;;;;;;5033737;28;20026;-54
2022/12/02 12:43:06;;;;;;;;;;;3.90;99.90;;;;;;5029895;28;19924;-53
2022/12/02 12:45:33;;;;;;;;;;;3.90;99.90;;;;;;5042669;28;19935;-56
2022/12/02 12:47:59;;;;;;;;;;;3.90;99.90;;;;;;5029845;28;20430;-64
2022/12/02 12:50:26;;;;;;;;;;;3.90;99.90;;;;;;5031530;28;20390;-54
2022/12/02 12:52:55;;;;;;;;;;;3.80;99.90;;;;;;5030810;28;19963;-54
2022/12/02 12:55:22;;;;;;;;;;;3.90;99.90;;;;;;5033882;28;20374;-55
2022/12/02 12:57:49;;;;;;;;;;;3.90;99.90;;;;;;5035922;28;19928;-51
2022/12/02 13:00:16;;;;;;;;;;;3.90;99.90;;;;;;5019823;28;19935;-64
2022/12/02 13:02:43;;;;;;;;;;;3.90;99.90;;;;;;4972285;28;20297;-65
2022/12/02 13:05:10;;;;;;;;;;;3.90;99.90;;;;;;4971143;28;19924;-62
2022/12/02 13:07:37;;;;;;;;;;;3.90;99.90;;;;;;5017986;28;20325;-53
2022/12/02 13:10:04;;;;;;;;;;;3.90;99.90;;;;;;4975810;28;20273;-62
2022/12/02 13:12:31;;;;;;;;;;;3.90;99.90;;;;;;4975151;28;20405;-64
2022/12/02 13:14:58;;;;;;;;;;;3.80;99.90;;;;;;4978115;28;20145;-62
2022/12/02 13:17:25;;;;;;;;;;;3.80;99.90;;;;;;4975766;28;20165;-64
2022/12/02 13:19:52;;;;;;;;;;;3.80;99.90;;;;;;4981343;28;20031;-64
2022/12/02 13:22:19;;;;;;;;;;;3.80;99.90;;;;;;4978852;28;19936;-64
2022/12/02 13:24:46;;;;;;;;;;;3.80;99.90;;;;;;4991514;28;20089;-64
2022/12/02 13:27:13;;;;;;;;;;;3.80;99.90;;;;;;4994084;28;20093;-62
2022/12/02 13:29:40;;;;;;;;;;;3.80;99.90;;;;;;4987844;28;20432;-62
2022/12/02 13:32:07;;;;;;;;;;;3.70;99.90;;;;;;4978958;28;20247;-62
2022/12/02 13:34:34;;;;;;;;;;;3.70;99.90;;;;;;4980815;28;20259;-63
2022/12/02 13:37:01;;;;;;;;;;;3.70;99.90;;;;;;5007031;28;19936;-65
2022/12/02 13:39:28;;;;;;;;;;;3.70;99.90;;;;;;4966352;28;20105;-63
2022/12/02 13:41:55;;;;;;;;;;;3.70;99.90;;;;;;4976705;28;20136;-63
2022/12/02 13:44:22;;;;;;;;;;;3.70;99.90;;;;;;4972043;28;20294;-63
2022/12/02 13:46:49;;;;;;;;;;;3.60;99.90;;;;;;4972346;28;20285;-64
2022/12/02 13:49:16;;;;;;;;;;;3.70;99.90;;;;;;4983776;28;20065;-53
2022/12/02 13:51:43;;;;;;;;;;;3.70;99.90;;;;;;4973983;28;20130;-55
2022/12/02 13:54:10;;;;;;;;;;;3.70;99.90;;;;;;4972683;28;20259;-61
2022/12/02 13:56:37;;;;;;;;;;;3.70;99.90;;;;;;4974947;28;20215;-65
2022/12/02 13:59:04;;;;;;;;;;;3.70;99.90;;;;;;4974637;28;20581;-64
2022/12/02 14:01:31;;;;;;;;;;;3.70;99.90;;;;;;4977935;28;20485;-63
2022/12/02 14:03:58;;;;;;;;;;;3.70;99.90;;;;;;5006031;28;20204;-63
2022/12/02 14:06:25;;;;;;;;;;;3.70;99.90;;;;;;4974301;28;19963;-53
2022/12/02 14:08:51;;;;;;;;;;;3.70;99.90;;;;;;5001510;28;19925;-63
2022/12/02 14:11:18;;;;;;;;;;;3.70;99.90;;;;;;4975634;28;19925;-58
2022/12/02 14:13:48;;;;;;;;;;;3.70;99.90;;;;;;4971760;28;20000;-62
2022/12/02 14:16:15;;;;;;;;;;;3.70;99.90;;;;;;4974747;28;19955;-63
2022/12/02 14:18:42;;;;;;;;;;;3.70;99.90;;;;;;4972615;28;20084;-61
2022/12/02 14:21:09;;;;;;;;;;;3.70;99.90;;;;;;4979060;28;20337;-62
2022/12/02 14:23:36;;;;;;;;;;;3.70;99.90;;;;;;4972210;28;20175;-56
2022/12/02 14:26:03;;;;;;;;;;;3.70;99.90;;;;;;4973037;28;20254;-56
2022/12/02 14:28:29;;;;;;;;;;;3.70;99.90;;;;;;4974476;28;20212;-55
2022/12/02 14:30:56;;;;;;;;;;;3.70;99.90;;;;;;4975607;28;20128;-55
2022/12/02 14:33:23;;;;;;;;;;;3.70;99.90;;;;;;4959770;28;20277;-55
2022/12/02 14:36:07;;;;;;;;;;;3.70;99.90;;;;;;4973262;28;20208;-53
2022/12/02 14:38:34;;;;;;;;;;;3.70;99.90;;;;;;4975669;28;20129;-54
2022/12/02 14:41:00;;;;;;;;;;;3.70;99.90;;;;;;5003782;28;20173;-53
2022/12/02 14:43:27;;;;;;;;;;;3.70;99.90;;;;;;4970006;28;20279;-54